Cairo, Egypt
Current Conditions -  °F | °C
As of 5:30 AM on Tuesday 27 Jan 2015 (Local Time) from HECA Reporting Station
Haze Haze  
Wind Chill: 55°   Ceiling: Unl
Heat Index: 55°   Visibility: 2.5mi
Dew Point: 55°   Wind: 5mph
Humidity: 100%   Direction: 30°NNE
Pressure: 30"   Gusts: NA
Location:  30.06°N, 31.25°E
Report Text: HECA 270330Z 03004KT 4000 BR NSC 13/13 Q1016 NOSIG
Loading
Personal Weather Stations






























Interactive Weather Map New forecast layout! Learn more

10-Day Weather Forecast

Advertisements
Track Severe Weather on mobile